sensor_id;sensor_type;location;lat;lon;timestamp;P1;durP1;ratioP1;P2;durP2;ratioP2
9547;SDS011;4812;51.992;8.648;2023-03-08T00:01:43;19.33;;;11.67;;
9547;SDS011;4812;51.992;8.648;2023-03-08T00:04:10;23.60;;;13.27;;
9547;SDS011;4812;51.992;8.648;2023-03-08T00:06:38;18.97;;;11.83;;
9547;SDS011;4812;51.992;8.648;2023-03-08T00:09:05;18.73;;;12.10;;
9547;SDS011;4812;51.992;8.648;2023-03-08T00:11:33;22.57;;;12.30;;
9547;SDS011;4812;51.992;8.648;2023-03-08T00:14:00;24.17;;;12.63;;
9547;SDS011;4812;51.992;8.648;2023-03-08T00:16:28;22.50;;;13.13;;
9547;SDS011;4812;51.992;8.648;2023-03-08T00:18:57;20.60;;;11.83;;
9547;SDS011;4812;51.992;8.648;2023-03-08T00:24:07;23.93;;;12.90;;
9547;SDS011;4812;51.992;8.648;2023-03-08T00:26:35;24.33;;;12.87;;
9547;SDS011;4812;51.992;8.648;2023-03-08T00:29:02;20.27;;;11.73;;
9547;SDS011;4812;51.992;8.648;2023-03-08T00:31:30;25.67;;;13.43;;
9547;SDS011;4812;51.992;8.648;2023-03-08T00:33:59;22.50;;;13.17;;
9547;SDS011;4812;51.992;8.648;2023-03-08T00:36:26;21.53;;;12.63;;
9547;SDS011;4812;51.992;8.648;2023-03-08T00:41:42;24.40;;;13.53;;
9547;SDS011;4812;51.992;8.648;2023-03-08T00:44:09;23.87;;;12.70;;
9547;SDS011;4812;51.992;8.648;2023-03-08T00:46:37;18.90;;;12.00;;
9547;SDS011;4812;51.992;8.648;2023-03-08T00:49:06;17.03;;;10.97;;
9547;SDS011;4812;51.992;8.648;2023-03-08T00:51:33;22.90;;;11.07;;
9547;SDS011;4812;51.992;8.648;2023-03-08T00:54:00;20.00;;;11.73;;
9547;SDS011;4812;51.992;8.648;2023-03-08T00:56:28;21.17;;;11.17;;
9547;SDS011;4812;51.992;8.648;2023-03-08T00:58:55;17.33;;;11.17;;
9547;SDS011;4812;51.992;8.648;2023-03-08T01:01:23;17.47;;;10.97;;
9547;SDS011;4812;51.992;8.648;2023-03-08T01:03:50;19.43;;;11.13;;
9547;SDS011;4812;51.992;8.648;2023-03-08T01:06:19;16.20;;;10.67;;
9547;SDS011;4812;51.992;8.648;2023-03-08T01:08:47;20.30;;;10.50;;
9547;SDS011;4812;51.992;8.648;2023-03-08T01:11:16;18.27;;;10.30;;
9547;SDS011;4812;51.992;8.648;2023-03-08T01:16:48;17.00;;;8.97;;
9547;SDS011;4812;51.992;8.648;2023-03-08T01:19:15;12.63;;;7.90;;
9547;SDS011;4812;51.992;8.648;2023-03-08T01:21:44;13.70;;;9.07;;
9547;SDS011;4812;51.992;8.648;2023-03-08T01:24:12;15.20;;;8.97;;
9547;SDS011;4812;51.992;8.648;2023-03-08T01:26:39;14.40;;;8.70;;
9547;SDS011;4812;51.992;8.648;2023-03-08T01:32:10;12.03;;;8.10;;
9547;SDS011;4812;51.992;8.648;2023-03-08T01:34:38;9.10;;;7.43;;
9547;SDS011;4812;51.992;8.648;2023-03-08T01:37:07;11.30;;;8.07;;
9547;SDS011;4812;51.992;8.648;2023-03-08T01:39:35;10.77;;;8.20;;
9547;SDS011;4812;51.992;8.648;2023-03-08T01:44:52;10.53;;;7.70;;
9547;SDS011;4812;51.992;8.648;2023-03-08T01:47:21;12.87;;;7.80;;
9547;SDS011;4812;51.992;8.648;2023-03-08T01:53:25;10.90;;;7.73;;
9547;SDS011;4812;51.992;8.648;2023-03-08T01:55:53;9.57;;;6.97;;
9547;SDS011;4812;51.992;8.648;2023-03-08T01:58:21;10.50;;;6.43;;
9547;SDS011;4812;51.992;8.648;2023-03-08T02:00:48;12.83;;;7.53;;
9547;SDS011;4812;51.992;8.648;2023-03-08T02:03:16;10.30;;;6.73;;
9547;SDS011;4812;51.992;8.648;2023-03-08T02:05:43;9.47;;;7.00;;
9547;SDS011;4812;51.992;8.648;2023-03-08T02:08:17;11.83;;;7.50;;
9547;SDS011;4812;51.992;8.648;2023-03-08T02:13:49;13.30;;;7.57;;
9547;SDS011;4812;51.992;8.648;2023-03-08T02:16:17;13.43;;;7.60;;
9547;SDS011;4812;51.992;8.648;2023-03-08T02:18:54;9.80;;;7.73;;
9547;SDS011;4812;51.992;8.648;2023-03-08T02:21:23;9.73;;;7.07;;
9547;SDS011;4812;51.992;8.648;2023-03-08T02:23:52;11.50;;;7.77;;
9547;SDS011;4812;51.992;8.648;2023-03-08T02:26:21;11.60;;;7.47;;
9547;SDS011;4812;51.992;8.648;2023-03-08T02:28:48;13.33;;;8.10;;
9547;SDS011;4812;51.992;8.648;2023-03-08T02:31:17;12.97;;;7.77;;
9547;SDS011;4812;51.992;8.648;2023-03-08T02:33:45;12.47;;;8.77;;
9547;SDS011;4812;51.992;8.648;2023-03-08T02:36:12;17.50;;;9.30;;
9547;SDS011;4812;51.992;8.648;2023-03-08T02:38:41;16.40;;;9.67;;
9547;SDS011;4812;51.992;8.648;2023-03-08T02:41:09;14.73;;;9.30;;
9547;SDS011;4812;51.992;8.648;2023-03-08T02:43:37;15.70;;;8.40;;
9547;SDS011;4812;51.992;8.648;2023-03-08T02:46:04;17.37;;;10.00;;
9547;SDS011;4812;51.992;8.648;2023-03-08T02:48:32;16.60;;;9.50;;
9547;SDS011;4812;51.992;8.648;2023-03-08T02:51:18;16.00;;;10.13;;
9547;SDS011;4812;51.992;8.648;2023-03-08T02:53:45;18.43;;;10.53;;
9547;SDS011;4812;51.992;8.648;2023-03-08T02:56:14;20.07;;;10.43;;
9547;SDS011;4812;51.992;8.648;2023-03-08T02:58:43;19.03;;;10.77;;
9547;SDS011;4812;51.992;8.648;2023-03-08T03:01:10;21.83;;;10.87;;
9547;SDS011;4812;51.992;8.648;2023-03-08T03:06:38;19.60;;;11.13;;
9547;SDS011;4812;51.992;8.648;2023-03-08T03:09:07;20.00;;;11.83;;
9547;SDS011;4812;51.992;8.648;2023-03-08T03:11:38;20.83;;;10.80;;
9547;SDS011;4812;51.992;8.648;2023-03-08T03:14:06;21.83;;;12.13;;
9547;SDS011;4812;51.992;8.648;2023-03-08T03:16:38;21.17;;;11.37;;
9547;SDS011;4812;51.992;8.648;2023-03-08T03:19:08;22.60;;;11.97;;
9547;SDS011;4812;51.992;8.648;2023-03-08T03:21:37;20.27;;;11.03;;
9547;SDS011;4812;51.992;8.648;2023-03-08T03:24:05;22.37;;;11.80;;
9547;SDS011;4812;51.992;8.648;2023-03-08T03:26:42;23.13;;;11.43;;
9547;SDS011;4812;51.992;8.648;2023-03-08T03:29:10;21.03;;;11.27;;
9547;SDS011;4812;51.992;8.648;2023-03-08T03:31:40;22.13;;;11.67;;
9547;SDS011;4812;51.992;8.648;2023-03-08T03:34:10;23.80;;;12.63;;
9547;SDS011;4812;51.992;8.648;2023-03-08T03:36:39;22.03;;;11.97;;
9547;SDS011;4812;51.992;8.648;2023-03-08T03:39:07;22.93;;;12.63;;
9547;SDS011;4812;51.992;8.648;2023-03-08T03:44:36;24.00;;;12.03;;
9547;SDS011;4812;51.992;8.648;2023-03-08T03:50:08;23.27;;;11.43;;
9547;SDS011;4812;51.992;8.648;2023-03-08T03:52:45;22.53;;;13.07;;
9547;SDS011;4812;51.992;8.648;2023-03-08T03:55:13;23.50;;;12.77;;
9547;SDS011;4812;51.992;8.648;2023-03-08T03:57:41;24.83;;;12.83;;
9547;SDS011;4812;51.992;8.648;2023-03-08T04:00:15;26.73;;;13.13;;
9547;SDS011;4812;51.992;8.648;2023-03-08T04:03:08;26.90;;;14.07;;
9547;SDS011;4812;51.992;8.648;2023-03-08T04:05:36;26.93;;;14.20;;
9547;SDS011;4812;51.992;8.648;2023-03-08T04:08:05;30.67;;;13.73;;
9547;SDS011;4812;51.992;8.648;2023-03-08T04:10:35;27.80;;;13.03;;
9547;SDS011;4812;51.992;8.648;2023-03-08T04:13:03;25.10;;;13.63;;
9547;SDS011;4812;51.992;8.648;2023-03-08T04:15:32;28.50;;;15.13;;
9547;SDS011;4812;51.992;8.648;2023-03-08T04:18:04;26.17;;;14.40;;
9547;SDS011;4812;51.992;8.648;2023-03-08T04:20:33;27.37;;;14.43;;
9547;SDS011;4812;51.992;8.648;2023-03-08T04:26:05;27.60;;;15.20;;
9547;SDS011;4812;51.992;8.648;2023-03-08T04:28:34;36.67;;;19.87;;
9547;SDS011;4812;51.992;8.648;2023-03-08T04:31:34;29.30;;;15.33;;
9547;SDS011;4812;51.992;8.648;2023-03-08T04:34:06;30.53;;;16.23;;
9547;SDS011;4812;51.992;8.648;2023-03-08T04:39:36;28.37;;;15.83;;
9547;SDS011;4812;51.992;8.648;2023-03-08T04:42:04;30.83;;;15.37;;
9547;SDS011;4812;51.992;8.648;2023-03-08T04:47:18;40.10;;;19.67;;
9547;SDS011;4812;51.992;8.648;2023-03-08T04:49:47;32.30;;;17.60;;
9547;SDS011;4812;51.992;8.648;2023-03-08T04:52:15;39.20;;;18.90;;
9547;SDS011;4812;51.992;8.648;2023-03-08T04:54:43;44.10;;;19.23;;
9547;SDS011;4812;51.992;8.648;2023-03-08T04:57:20;42.03;;;20.13;;
9547;SDS011;4812;51.992;8.648;2023-03-08T05:02:55;47.60;;;22.33;;
9547;SDS011;4812;51.992;8.648;2023-03-08T05:05:24;44.27;;;20.73;;
9547;SDS011;4812;51.992;8.648;2023-03-08T05:07:52;47.87;;;22.73;;
9547;SDS011;4812;51.992;8.648;2023-03-08T05:10:20;51.67;;;22.43;;
9547;SDS011;4812;51.992;8.648;2023-03-08T05:12:48;49.50;;;22.43;;
9547;SDS011;4812;51.992;8.648;2023-03-08T05:15:16;52.87;;;22.13;;
9547;SDS011;4812;51.992;8.648;2023-03-08T05:17:44;51.30;;;23.97;;
9547;SDS011;4812;51.992;8.648;2023-03-08T05:20:13;47.30;;;22.00;;
9547;SDS011;4812;51.992;8.648;2023-03-08T05:22:42;43.23;;;20.83;;
9547;SDS011;4812;51.992;8.648;2023-03-08T05:25:27;48.37;;;23.13;;
9547;SDS011;4812;51.992;8.648;2023-03-08T05:27:57;45.50;;;20.80;;
9547;SDS011;4812;51.992;8.648;2023-03-08T05:30:24;48.03;;;22.67;;
9547;SDS011;4812;51.992;8.648;2023-03-08T05:32:52;54.83;;;22.63;;
9547;SDS011;4812;51.992;8.648;2023-03-08T05:38:18;51.90;;;23.10;;
9547;SDS011;4812;51.992;8.648;2023-03-08T05:40:46;58.60;;;23.30;;
9547;SDS011;4812;51.992;8.648;2023-03-08T05:46:13;42.33;;;21.07;;
9547;SDS011;4812;51.992;8.648;2023-03-08T05:48:43;52.70;;;23.23;;
9547;SDS011;4812;51.992;8.648;2023-03-08T05:51:14;45.83;;;21.70;;
9547;SDS011;4812;51.992;8.648;2023-03-08T05:53:44;46.17;;;21.07;;
9547;SDS011;4812;51.992;8.648;2023-03-08T05:56:16;42.80;;;20.03;;
9547;SDS011;4812;51.992;8.648;2023-03-08T06:02:05;45.67;;;21.23;;
9547;SDS011;4812;51.992;8.648;2023-03-08T06:07:39;41.57;;;20.40;;
9547;SDS011;4812;51.992;8.648;2023-03-08T06:10:12;47.53;;;21.17;;
9547;SDS011;4812;51.992;8.648;2023-03-08T06:12:40;45.00;;;20.93;;
9547;SDS011;4812;51.992;8.648;2023-03-08T06:15:12;39.60;;;20.30;;
9547;SDS011;4812;51.992;8.648;2023-03-08T06:17:40;44.17;;;19.90;;
9547;SDS011;4812;51.992;8.648;2023-03-08T06:20:10;39.10;;;18.43;;
9547;SDS011;4812;51.992;8.648;2023-03-08T06:22:59;43.30;;;19.87;;
9547;SDS011;4812;51.992;8.648;2023-03-08T06:25:28;42.77;;;18.83;;
9547;SDS011;4812;51.992;8.648;2023-03-08T06:27:55;39.73;;;19.47;;
9547;SDS011;4812;51.992;8.648;2023-03-08T06:30:32;40.23;;;19.30;;
9547;SDS011;4812;51.992;8.648;2023-03-08T06:33:02;34.50;;;18.43;;
9547;SDS011;4812;51.992;8.648;2023-03-08T06:35:30;37.13;;;19.63;;
9547;SDS011;4812;51.992;8.648;2023-03-08T06:38:00;36.47;;;19.27;;
9547;SDS011;4812;51.992;8.648;2023-03-08T06:40:30;40.47;;;20.07;;
9547;SDS011;4812;51.992;8.648;2023-03-08T06:42:57;41.23;;;19.10;;
9547;SDS011;4812;51.992;8.648;2023-03-08T06:48:38;43.57;;;19.43;;
9547;SDS011;4812;51.992;8.648;2023-03-08T06:51:06;39.43;;;20.73;;
9547;SDS011;4812;51.992;8.648;2023-03-08T06:53:34;38.67;;;20.37;;
9547;SDS011;4812;51.992;8.648;2023-03-08T06:56:06;43.47;;;20.40;;
9547;SDS011;4812;51.992;8.648;2023-03-08T07:01:23;41.47;;;22.13;;
9547;SDS011;4812;51.992;8.648;2023-03-08T07:03:50;43.67;;;23.07;;
9547;SDS011;4812;51.992;8.648;2023-03-08T07:06:18;47.90;;;23.63;;
9547;SDS011;4812;51.992;8.648;2023-03-08T07:08:45;48.97;;;24.63;;
9547;SDS011;4812;51.992;8.648;2023-03-08T07:11:14;44.03;;;23.03;;
9547;SDS011;4812;51.992;8.648;2023-03-08T07:16:34;43.17;;;23.67;;
9547;SDS011;4812;51.992;8.648;2023-03-08T07:22:00;42.43;;;21.80;;
9547;SDS011;4812;51.992;8.648;2023-03-08T07:24:27;46.50;;;24.23;;
9547;SDS011;4812;51.992;8.648;2023-03-08T07:26:56;44.23;;;24.13;;
9547;SDS011;4812;51.992;8.648;2023-03-08T07:29:23;41.27;;;21.77;;
9547;SDS011;4812;51.992;8.648;2023-03-08T07:31:51;40.83;;;20.87;;
9547;SDS011;4812;51.992;8.648;2023-03-08T07:37:14;40.13;;;20.70;;
9547;SDS011;4812;51.992;8.648;2023-03-08T07:42:50;38.40;;;20.60;;
9547;SDS011;4812;51.992;8.648;2023-03-08T07:45:29;42.03;;;21.00;;
9547;SDS011;4812;51.992;8.648;2023-03-08T07:47:57;41.23;;;20.83;;
9547;SDS011;4812;51.992;8.648;2023-03-08T07:53:15;40.67;;;21.60;;
9547;SDS011;4812;51.992;8.648;2023-03-08T07:55:42;42.80;;;20.67;;
9547;SDS011;4812;51.992;8.648;2023-03-08T07:58:10;42.23;;;22.03;;
9547;SDS011;4812;51.992;8.648;2023-03-08T08:00:37;42.03;;;20.50;;
9547;SDS011;4812;51.992;8.648;2023-03-08T08:03:05;38.60;;;19.97;;
9547;SDS011;4812;51.992;8.648;2023-03-08T08:05:33;36.57;;;18.97;;
9547;SDS011;4812;51.992;8.648;2023-03-08T08:08:01;33.33;;;18.17;;
9547;SDS011;4812;51.992;8.648;2023-03-08T08:10:30;29.77;;;17.93;;
9547;SDS011;4812;51.992;8.648;2023-03-08T08:12:57;31.80;;;18.17;;
9547;SDS011;4812;51.992;8.648;2023-03-08T08:18:28;37.57;;;18.80;;
9547;SDS011;4812;51.992;8.648;2023-03-08T08:20:59;38.57;;;20.57;;
9547;SDS011;4812;51.992;8.648;2023-03-08T08:23:27;36.33;;;19.37;;
9547;SDS011;4812;51.992;8.648;2023-03-08T08:25:56;34.90;;;19.67;;
9547;SDS011;4812;51.992;8.648;2023-03-08T08:28:24;42.27;;;20.63;;
9547;SDS011;4812;51.992;8.648;2023-03-08T08:30:56;36.00;;;19.80;;
9547;SDS011;4812;51.992;8.648;2023-03-08T08:33:26;36.57;;;21.20;;
9547;SDS011;4812;51.992;8.648;2023-03-08T08:35:54;38.10;;;20.77;;
9547;SDS011;4812;51.992;8.648;2023-03-08T08:38:21;39.77;;;21.70;;
9547;SDS011;4812;51.992;8.648;2023-03-08T08:40:49;40.63;;;22.63;;
9547;SDS011;4812;51.992;8.648;2023-03-08T08:43:18;36.53;;;21.20;;
9547;SDS011;4812;51.992;8.648;2023-03-08T08:45:47;36.13;;;19.63;;
9547;SDS011;4812;51.992;8.648;2023-03-08T08:48:17;40.83;;;21.43;;
9547;SDS011;4812;51.992;8.648;2023-03-08T08:50:44;34.27;;;21.33;;
9547;SDS011;4812;51.992;8.648;2023-03-08T08:53:12;34.10;;;19.63;;
9547;SDS011;4812;51.992;8.648;2023-03-08T08:55:40;31.63;;;18.73;;
9547;SDS011;4812;51.992;8.648;2023-03-08T08:58:10;31.83;;;19.37;;
9547;SDS011;4812;51.992;8.648;2023-03-08T09:00:39;37.60;;;21.03;;
9547;SDS011;4812;51.992;8.648;2023-03-08T09:03:39;36.37;;;19.30;;
9547;SDS011;4812;51.992;8.648;2023-03-08T09:06:06;34.17;;;19.47;;
9547;SDS011;4812;51.992;8.648;2023-03-08T09:08:34;33.63;;;18.50;;
9547;SDS011;4812;51.992;8.648;2023-03-08T09:11:02;29.90;;;18.67;;
9547;SDS011;4812;51.992;8.648;2023-03-08T09:13:30;32.57;;;17.60;;
9547;SDS011;4812;51.992;8.648;2023-03-08T09:15:59;29.43;;;18.27;;
9547;SDS011;4812;51.992;8.648;2023-03-08T09:18:27;31.27;;;17.63;;
9547;SDS011;4812;51.992;8.648;2023-03-08T09:20:54;27.53;;;16.53;;
9547;SDS011;4812;51.992;8.648;2023-03-08T09:23:22;24.60;;;15.23;;
9547;SDS011;4812;51.992;8.648;2023-03-08T09:25:55;26.50;;;15.77;;
9547;SDS011;4812;51.992;8.648;2023-03-08T09:28:26;26.63;;;15.60;;
9547;SDS011;4812;51.992;8.648;2023-03-08T09:30:54;24.57;;;15.23;;
9547;SDS011;4812;51.992;8.648;2023-03-08T09:33:22;26.93;;;15.60;;
9547;SDS011;4812;51.992;8.648;2023-03-08T09:38:39;27.47;;;16.63;;
9547;SDS011;4812;51.992;8.648;2023-03-08T09:41:10;28.17;;;17.07;;
9547;SDS011;4812;51.992;8.648;2023-03-08T09:43:55;29.73;;;16.93;;
9547;SDS011;4812;51.992;8.648;2023-03-08T09:49:17;32.47;;;19.80;;
9547;SDS011;4812;51.992;8.648;2023-03-08T09:54:49;38.23;;;20.43;;
9547;SDS011;4812;51.992;8.648;2023-03-08T09:57:20;31.27;;;18.43;;
9547;SDS011;4812;51.992;8.648;2023-03-08T09:59:52;31.33;;;19.13;;
9547;SDS011;4812;51.992;8.648;2023-03-08T10:02:23;28.03;;;15.33;;
9547;SDS011;4812;51.992;8.648;2023-03-08T10:05:03;20.57;;;12.20;;
9547;SDS011;4812;51.992;8.648;2023-03-08T10:10:45;15.17;;;9.43;;
9547;SDS011;4812;51.992;8.648;2023-03-08T10:13:21;9.10;;;7.27;;
9547;SDS011;4812;51.992;8.648;2023-03-08T10:15:55;5.90;;;5.40;;
9547;SDS011;4812;51.992;8.648;2023-03-08T10:18:26;6.90;;;5.80;;
9547;SDS011;4812;51.992;8.648;2023-03-08T10:20:57;6.83;;;5.80;;
9547;SDS011;4812;51.992;8.648;2023-03-08T10:23:29;7.93;;;6.77;;
9547;SDS011;4812;51.992;8.648;2023-03-08T10:29:01;8.73;;;7.23;;
9547;SDS011;4812;51.992;8.648;2023-03-08T10:31:28;9.57;;;8.50;;
9547;SDS011;4812;51.992;8.648;2023-03-08T10:34:30;11.57;;;8.20;;
9547;SDS011;4812;51.992;8.648;2023-03-08T10:37:01;11.37;;;8.40;;
9547;SDS011;4812;51.992;8.648;2023-03-08T10:39:29;12.97;;;9.70;;
9547;SDS011;4812;51.992;8.648;2023-03-08T10:41:58;13.27;;;9.33;;
9547;SDS011;4812;51.992;8.648;2023-03-08T10:44:29;14.50;;;10.00;;
9547;SDS011;4812;51.992;8.648;2023-03-08T10:46:58;13.23;;;9.73;;
9547;SDS011;4812;51.992;8.648;2023-03-08T10:52:33;13.13;;;9.20;;
9547;SDS011;4812;51.992;8.648;2023-03-08T10:55:01;10.87;;;8.83;;
9547;SDS011;4812;51.992;8.648;2023-03-08T10:57:29;11.07;;;8.43;;
9547;SDS011;4812;51.992;8.648;2023-03-08T10:59:59;11.07;;;8.63;;
9547;SDS011;4812;51.992;8.648;2023-03-08T11:05:19;8.30;;;7.07;;
9547;SDS011;4812;51.992;8.648;2023-03-08T11:07:50;9.00;;;7.13;;
9547;SDS011;4812;51.992;8.648;2023-03-08T11:13:04;7.57;;;6.00;;
9547;SDS011;4812;51.992;8.648;2023-03-08T11:15:35;6.73;;;6.13;;
9547;SDS011;4812;51.992;8.648;2023-03-08T11:18:05;7.00;;;5.93;;
9547;SDS011;4812;51.992;8.648;2023-03-08T11:20:38;6.83;;;5.60;;
9547;SDS011;4812;51.992;8.648;2023-03-08T11:23:14;7.77;;;5.90;;
9547;SDS011;4812;51.992;8.648;2023-03-08T11:25:44;7.57;;;6.27;;
9547;SDS011;4812;51.992;8.648;2023-03-08T11:28:21;6.43;;;5.83;;
9547;SDS011;4812;51.992;8.648;2023-03-08T11:31:11;7.73;;;6.70;;
9547;SDS011;4812;51.992;8.648;2023-03-08T11:33:47;7.07;;;6.37;;
9547;SDS011;4812;51.992;8.648;2023-03-08T11:36:22;6.60;;;5.90;;
9547;SDS011;4812;51.992;8.648;2023-03-08T11:38:58;6.30;;;5.70;;
9547;SDS011;4812;51.992;8.648;2023-03-08T11:41:32;6.73;;;5.83;;
9547;SDS011;4812;51.992;8.648;2023-03-08T11:44:08;6.40;;;5.80;;
9547;SDS011;4812;51.992;8.648;2023-03-08T11:46:46;6.07;;;5.47;;
9547;SDS011;4812;51.992;8.648;2023-03-08T11:52:21;4.53;;;4.20;;
9547;SDS011;4812;51.992;8.648;2023-03-08T11:55:00;5.23;;;4.73;;
9547;SDS011;4812;51.992;8.648;2023-03-08T11:57:33;4.97;;;4.57;;
9547;SDS011;4812;51.992;8.648;2023-03-08T12:00:03;6.63;;;5.30;;
9547;SDS011;4812;51.992;8.648;2023-03-08T12:02:39;6.50;;;5.90;;
9547;SDS011;4812;51.992;8.648;2023-03-08T12:05:11;6.67;;;5.50;;
9547;SDS011;4812;51.992;8.648;2023-03-08T12:07:42;6.77;;;6.03;;
9547;SDS011;4812;51.992;8.648;2023-03-08T12:15:45;7.57;;;6.00;;
9547;SDS011;4812;51.992;8.648;2023-03-08T12:18:15;5.60;;;5.00;;
9547;SDS011;4812;51.992;8.648;2023-03-08T12:20:46;4.90;;;4.40;;
9547;SDS011;4812;51.992;8.648;2023-03-08T12:23:18;4.60;;;4.20;;
9547;SDS011;4812;51.992;8.648;2023-03-08T12:25:50;4.27;;;3.97;;
9547;SDS011;4812;51.992;8.648;2023-03-08T12:28:19;5.57;;;5.17;;
9547;SDS011;4812;51.992;8.648;2023-03-08T12:31:00;5.40;;;4.90;;
9547;SDS011;4812;51.992;8.648;2023-03-08T12:36:54;4.80;;;4.43;;
9547;SDS011;4812;51.992;8.648;2023-03-08T12:39:24;5.00;;;4.50;;
9547;SDS011;4812;51.992;8.648;2023-03-08T12:41:59;4.70;;;4.30;;
9547;SDS011;4812;51.992;8.648;2023-03-08T12:44:29;5.00;;;4.60;;
9547;SDS011;4812;51.992;8.648;2023-03-08T12:46:57;4.63;;;4.30;;
9547;SDS011;4812;51.992;8.648;2023-03-08T12:49:29;5.10;;;4.60;;
9547;SDS011;4812;51.992;8.648;2023-03-08T12:52:00;5.37;;;4.87;;
9547;SDS011;4812;51.992;8.648;2023-03-08T12:54:29;4.83;;;4.53;;
9547;SDS011;4812;51.992;8.648;2023-03-08T12:57:00;5.03;;;4.63;;
9547;SDS011;4812;51.992;8.648;2023-03-08T13:00:00;5.03;;;4.60;;
9547;SDS011;4812;51.992;8.648;2023-03-08T13:02:32;4.70;;;4.30;;
9547;SDS011;4812;51.992;8.648;2023-03-08T13:05:04;5.00;;;4.60;;
9547;SDS011;4812;51.992;8.648;2023-03-08T13:07:59;5.10;;;4.40;;
9547;SDS011;4812;51.992;8.648;2023-03-08T13:10:29;5.37;;;4.87;;
9547;SDS011;4812;51.992;8.648;2023-03-08T13:13:03;5.40;;;5.00;;
9547;SDS011;4812;51.992;8.648;2023-03-08T13:16:04;5.43;;;5.03;;
9547;SDS011;4812;51.992;8.648;2023-03-08T13:18:47;5.17;;;4.70;;
9547;SDS011;4812;51.992;8.648;2023-03-08T13:21:23;5.73;;;5.23;;
9547;SDS011;4812;51.992;8.648;2023-03-08T13:26:58;5.83;;;5.40;;
9547;SDS011;4812;51.992;8.648;2023-03-08T13:29:34;5.90;;;5.40;;
9547;SDS011;4812;51.992;8.648;2023-03-08T13:32:05;5.37;;;4.93;;
9547;SDS011;4812;51.992;8.648;2023-03-08T13:34:36;5.33;;;4.93;;
9547;SDS011;4812;51.992;8.648;2023-03-08T13:37:18;6.00;;;5.40;;
9547;SDS011;4812;51.992;8.648;2023-03-08T13:42:34;8.33;;;5.20;;
9547;SDS011;4812;51.992;8.648;2023-03-08T13:45:07;5.47;;;4.97;;
9547;SDS011;4812;51.992;8.648;2023-03-08T13:47:37;5.00;;;4.50;;
9547;SDS011;4812;51.992;8.648;2023-03-08T13:50:06;5.53;;;5.03;;
9547;SDS011;4812;51.992;8.648;2023-03-08T13:52:35;7.63;;;5.00;;
9547;SDS011;4812;51.992;8.648;2023-03-08T13:55:04;8.33;;;5.90;;
9547;SDS011;4812;51.992;8.648;2023-03-08T13:57:34;7.40;;;6.20;;
9547;SDS011;4812;51.992;8.648;2023-03-08T14:00:15;6.03;;;5.43;;
9547;SDS011;4812;51.992;8.648;2023-03-08T14:02:49;5.93;;;5.40;;
9547;SDS011;4812;51.992;8.648;2023-03-08T14:05:18;5.97;;;5.40;;
9547;SDS011;4812;51.992;8.648;2023-03-08T14:07:57;6.20;;;5.70;;
9547;SDS011;4812;51.992;8.648;2023-03-08T14:10:33;7.27;;;5.70;;
9547;SDS011;4812;51.992;8.648;2023-03-08T14:13:02;6.30;;;5.70;;
9547;SDS011;4812;51.992;8.648;2023-03-08T14:15:32;6.53;;;5.93;;
9547;SDS011;4812;51.992;8.648;2023-03-08T14:18:01;7.57;;;6.27;;
9547;SDS011;4812;51.992;8.648;2023-03-08T14:20:29;6.63;;;6.03;;
9547;SDS011;4812;51.992;8.648;2023-03-08T14:22:57;5.97;;;5.40;;
9547;SDS011;4812;51.992;8.648;2023-03-08T14:25:26;7.00;;;6.10;;
9547;SDS011;4812;51.992;8.648;2023-03-08T14:27:54;6.57;;;5.33;;
9547;SDS011;4812;51.992;8.648;2023-03-08T14:33:26;6.43;;;5.40;;
9547;SDS011;4812;51.992;8.648;2023-03-08T14:36:07;5.60;;;5.10;;
9547;SDS011;4812;51.992;8.648;2023-03-08T14:38:36;5.80;;;5.20;;
9547;SDS011;4812;51.992;8.648;2023-03-08T14:41:03;5.77;;;5.07;;
9547;SDS011;4812;51.992;8.648;2023-03-08T14:43:32;6.53;;;5.80;;
9547;SDS011;4812;51.992;8.648;2023-03-08T14:46:00;6.53;;;5.60;;
9547;SDS011;4812;51.992;8.648;2023-03-08T14:48:30;6.97;;;5.47;;
9547;SDS011;4812;51.992;8.648;2023-03-08T14:53:54;5.83;;;5.33;;
9547;SDS011;4812;51.992;8.648;2023-03-08T14:56:22;6.20;;;5.50;;
9547;SDS011;4812;51.992;8.648;2023-03-08T14:58:50;5.93;;;5.40;;
9547;SDS011;4812;51.992;8.648;2023-03-08T15:01:22;5.87;;;5.27;;
9547;SDS011;4812;51.992;8.648;2023-03-08T15:03:52;5.80;;;5.30;;
9547;SDS011;4812;51.992;8.648;2023-03-08T15:06:21;5.40;;;4.83;;
9547;SDS011;4812;51.992;8.648;2023-03-08T15:11:38;6.23;;;5.17;;
9547;SDS011;4812;51.992;8.648;2023-03-08T15:14:05;5.93;;;5.33;;
9547;SDS011;4812;51.992;8.648;2023-03-08T15:16:32;6.20;;;5.57;;
9547;SDS011;4812;51.992;8.648;2023-03-08T15:19:01;5.70;;;5.20;;
9547;SDS011;4812;51.992;8.648;2023-03-08T15:21:29;6.63;;;5.80;;
9547;SDS011;4812;51.992;8.648;2023-03-08T15:23:57;5.67;;;5.17;;
9547;SDS011;4812;51.992;8.648;2023-03-08T15:26:25;5.07;;;4.67;;
9547;SDS011;4812;51.992;8.648;2023-03-08T15:28:54;4.57;;;4.17;;
9547;SDS011;4812;51.992;8.648;2023-03-08T15:31:21;5.90;;;5.30;;
9547;SDS011;4812;51.992;8.648;2023-03-08T15:36:49;4.97;;;4.57;;
9547;SDS011;4812;51.992;8.648;2023-03-08T15:39:17;5.67;;;5.07;;
9547;SDS011;4812;51.992;8.648;2023-03-08T15:41:45;5.90;;;5.30;;
9547;SDS011;4812;51.992;8.648;2023-03-08T15:44:13;5.53;;;5.03;;
9547;SDS011;4812;51.992;8.648;2023-03-08T15:46:40;6.33;;;5.70;;
9547;SDS011;4812;51.992;8.648;2023-03-08T15:52:12;5.80;;;5.03;;
9547;SDS011;4812;51.992;8.648;2023-03-08T15:54:39;5.40;;;4.90;;
9547;SDS011;4812;51.992;8.648;2023-03-08T15:57:10;7.40;;;5.30;;
9547;SDS011;4812;51.992;8.648;2023-03-08T15:59:37;7.23;;;5.00;;
9547;SDS011;4812;51.992;8.648;2023-03-08T16:02:05;5.70;;;4.70;;
9547;SDS011;4812;51.992;8.648;2023-03-08T16:07:23;5.77;;;5.27;;
9547;SDS011;4812;51.992;8.648;2023-03-08T16:09:50;5.93;;;5.13;;
9547;SDS011;4812;51.992;8.648;2023-03-08T16:12:18;6.00;;;5.43;;
9547;SDS011;4812;51.992;8.648;2023-03-08T16:14:46;6.00;;;5.40;;
9547;SDS011;4812;51.992;8.648;2023-03-08T16:17:15;6.23;;;5.63;;
9547;SDS011;4812;51.992;8.648;2023-03-08T16:19:43;5.97;;;5.37;;
9547;SDS011;4812;51.992;8.648;2023-03-08T16:22:11;5.57;;;5.07;;
9547;SDS011;4812;51.992;8.648;2023-03-08T16:24:40;5.57;;;5.07;;
9547;SDS011;4812;51.992;8.648;2023-03-08T16:27:08;7.97;;;5.87;;
9547;SDS011;4812;51.992;8.648;2023-03-08T16:29:35;6.53;;;5.60;;
9547;SDS011;4812;51.992;8.648;2023-03-08T16:32:03;6.73;;;6.03;;
9547;SDS011;4812;51.992;8.648;2023-03-08T16:34:31;6.67;;;5.43;;
9547;SDS011;4812;51.992;8.648;2023-03-08T16:36:59;7.40;;;6.50;;
9547;SDS011;4812;51.992;8.648;2023-03-08T16:42:30;8.27;;;6.33;;
9547;SDS011;4812;51.992;8.648;2023-03-08T16:44:57;7.33;;;6.67;;
9547;SDS011;4812;51.992;8.648;2023-03-08T16:47:25;7.60;;;6.90;;
9547;SDS011;4812;51.992;8.648;2023-03-08T16:49:57;7.90;;;7.10;;
9547;SDS011;4812;51.992;8.648;2023-03-08T16:52:25;6.83;;;6.13;;
9547;SDS011;4812;51.992;8.648;2023-03-08T16:54:53;7.60;;;6.97;;
9547;SDS011;4812;51.992;8.648;2023-03-08T16:57:22;7.67;;;6.60;;
9547;SDS011;4812;51.992;8.648;2023-03-08T16:59:51;9.77;;;6.90;;
9547;SDS011;4812;51.992;8.648;2023-03-08T17:02:19;8.57;;;6.67;;
9547;SDS011;4812;51.992;8.648;2023-03-08T17:04:47;8.90;;;6.77;;
9547;SDS011;4812;51.992;8.648;2023-03-08T17:07:16;8.60;;;7.00;;
9547;SDS011;4812;51.992;8.648;2023-03-08T17:09:43;8.80;;;6.70;;
9547;SDS011;4812;51.992;8.648;2023-03-08T17:12:11;7.53;;;6.20;;
9547;SDS011;4812;51.992;8.648;2023-03-08T17:14:39;8.77;;;6.70;;
9547;SDS011;4812;51.992;8.648;2023-03-08T17:17:10;11.00;;;7.43;;
9547;SDS011;4812;51.992;8.648;2023-03-08T17:19:39;9.90;;;7.70;;
9547;SDS011;4812;51.992;8.648;2023-03-08T17:22:06;9.43;;;7.87;;
9547;SDS011;4812;51.992;8.648;2023-03-08T17:27:31;13.77;;;9.00;;
9547;SDS011;4812;51.992;8.648;2023-03-08T17:29:58;12.17;;;9.10;;
9547;SDS011;4812;51.992;8.648;2023-03-08T17:32:30;13.87;;;10.40;;
9547;SDS011;4812;51.992;8.648;2023-03-08T17:34:57;13.70;;;10.33;;
9547;SDS011;4812;51.992;8.648;2023-03-08T17:37:25;17.03;;;10.10;;
9547;SDS011;4812;51.992;8.648;2023-03-08T17:39:52;13.93;;;10.03;;
9547;SDS011;4812;51.992;8.648;2023-03-08T17:45:05;11.37;;;7.97;;